sensor_id;sensor_type;location;lat;lon;timestamp;pressure;altitude;pressure_sealevel;temperature;humidity
20620;BME280;10469;42.720;23.252;2023-02-03T00:02:16;95105.09;;;2.50;100.00
20620;BME280;10469;42.720;23.252;2023-02-03T00:04:41;95100.72;;;2.43;100.00
20620;BME280;10469;42.720;23.252;2023-02-03T00:07:09;95115.03;;;2.63;100.00
20620;BME280;10469;42.720;23.252;2023-02-03T00:09:37;95112.31;;;2.57;100.00
20620;BME280;10469;42.720;23.252;2023-02-03T00:12:03;95123.72;;;2.57;100.00
20620;BME280;10469;42.720;23.252;2023-02-03T00:14:29;95127.53;;;2.40;100.00
20620;BME280;10469;42.720;23.252;2023-02-03T00:16:54;95132.41;;;2.51;100.00
20620;BME280;10469;42.720;23.252;2023-02-03T00:19:20;95118.81;;;2.16;100.00
20620;BME280;10469;42.720;23.252;2023-02-03T00:21:45;95145.03;;;2.26;100.00
20620;BME280;10469;42.720;23.252;2023-02-03T00:24:11;95128.81;;;2.06;100.00
20620;BME280;10469;42.720;23.252;2023-02-03T00:26:40;95148.75;;;2.32;100.00
20620;BME280;10469;42.720;23.252;2023-02-03T00:29:09;95141.50;;;2.34;100.00
20620;BME280;10469;42.720;23.252;2023-02-03T00:31:35;95133.44;;;2.27;100.00
20620;BME280;10469;42.720;23.252;2023-02-03T00:34:00;95137.56;;;2.07;100.00
20620;BME280;10469;42.720;23.252;2023-02-03T00:36:26;95154.19;;;2.15;100.00
20620;BME280;10469;42.720;23.252;2023-02-03T00:38:52;95154.78;;;2.25;100.00
20620;BME280;10469;42.720;23.252;2023-02-03T00:41:18;95151.59;;;2.30;100.00
20620;BME280;10469;42.720;23.252;2023-02-03T00:43:44;95163.09;;;2.37;100.00
20620;BME280;10469;42.720;23.252;2023-02-03T00:46:09;95163.00;;;2.31;100.00
20620;BME280;10469;42.720;23.252;2023-02-03T00:48:35;95155.91;;;2.46;100.00
20620;BME280;10469;42.720;23.252;2023-02-03T00:51:00;95151.41;;;2.32;100.00
20620;BME280;10469;42.720;23.252;2023-02-03T00:53:26;95149.66;;;2.24;100.00
20620;BME280;10469;42.720;23.252;2023-02-03T00:55:51;95149.59;;;2.32;100.00
20620;BME280;10469;42.720;23.252;2023-02-03T00:58:17;95155.34;;;2.36;100.00
20620;BME280;10469;42.720;23.252;2023-02-03T01:00:42;95163.06;;;2.22;100.00
20620;BME280;10469;42.720;23.252;2023-02-03T01:03:08;95167.53;;;2.22;100.00
20620;BME280;10469;42.720;23.252;2023-02-03T01:05:34;95173.03;;;2.20;100.00
20620;BME280;10469;42.720;23.252;2023-02-03T01:08:00;95175.41;;;2.07;100.00
20620;BME280;10469;42.720;23.252;2023-02-03T01:10:26;95179.69;;;1.85;100.00
20620;BME280;10469;42.720;23.252;2023-02-03T01:12:51;95178.72;;;2.09;100.00
20620;BME280;10469;42.720;23.252;2023-02-03T01:15:17;95179.59;;;1.79;100.00
20620;BME280;10469;42.720;23.252;2023-02-03T01:17:43;95169.78;;;1.87;100.00
20620;BME280;10469;42.720;23.252;2023-02-03T01:20:09;95166.06;;;1.73;100.00
20620;BME280;10469;42.720;23.252;2023-02-03T01:22:36;95180.88;;;1.83;100.00
20620;BME280;10469;42.720;23.252;2023-02-03T01:25:02;95175.06;;;1.87;100.00
20620;BME280;10469;42.720;23.252;2023-02-03T01:27:27;95184.41;;;1.98;100.00
20620;BME280;10469;42.720;23.252;2023-02-03T01:29:53;95175.13;;;2.02;100.00
20620;BME280;10469;42.720;23.252;2023-02-03T01:32:18;95176.47;;;1.98;100.00
20620;BME280;10469;42.720;23.252;2023-02-03T01:34:44;95178.97;;;1.99;100.00
20620;BME280;10469;42.720;23.252;2023-02-03T01:37:09;95170.78;;;2.09;100.00
20620;BME280;10469;42.720;23.252;2023-02-03T01:39:35;95173.81;;;1.98;100.00
20620;BME280;10469;42.720;23.252;2023-02-03T01:42:00;95166.25;;;1.95;100.00
20620;BME280;10469;42.720;23.252;2023-02-03T01:47:10;95186.00;;;2.07;100.00
20620;BME280;10469;42.720;23.252;2023-02-03T01:49:38;95187.66;;;2.08;100.00
20620;BME280;10469;42.720;23.252;2023-02-03T01:52:05;95179.78;;;2.00;100.00
20620;BME280;10469;42.720;23.252;2023-02-03T01:54:35;95174.66;;;1.98;100.00
20620;BME280;10469;42.720;23.252;2023-02-03T01:57:24;95179.06;;;2.06;100.00
20620;BME280;10469;42.720;23.252;2023-02-03T01:59:53;95186.94;;;2.14;100.00
20620;BME280;10469;42.720;23.252;2023-02-03T02:02:20;95182.19;;;2.10;100.00
20620;BME280;10469;42.720;23.252;2023-02-03T02:05:10;95178.66;;;2.17;100.00
20620;BME280;10469;42.720;23.252;2023-02-03T02:07:39;95182.38;;;2.08;100.00
20620;BME280;10469;42.720;23.252;2023-02-03T02:10:06;95195.06;;;2.13;100.00
20620;BME280;10469;42.720;23.252;2023-02-03T02:12:31;95190.00;;;2.03;100.00
20620;BME280;10469;42.720;23.252;2023-02-03T02:14:57;95194.53;;;2.17;100.00
20620;BME280;10469;42.720;23.252;2023-02-03T02:17:35;95193.34;;;2.20;100.00
20620;BME280;10469;42.720;23.252;2023-02-03T02:29:19;95201.00;;;1.92;100.00
20620;BME280;10469;42.720;23.252;2023-02-03T02:40:28;95199.19;;;1.61;100.00
20620;BME280;10469;42.720;23.252;2023-02-03T02:49:21;95200.50;;;1.65;100.00
20620;BME280;10469;42.720;23.252;2023-02-03T02:51:50;95198.38;;;1.61;100.00
20620;BME280;10469;42.720;23.252;2023-02-03T02:54:20;95230.16;;;1.75;100.00
20620;BME280;10469;42.720;23.252;2023-02-03T02:56:51;95201.50;;;1.64;100.00
20620;BME280;10469;42.720;23.252;2023-02-03T02:59:18;95221.94;;;1.70;100.00
20620;BME280;10469;42.720;23.252;2023-02-03T03:01:43;95220.78;;;1.73;100.00
20620;BME280;10469;42.720;23.252;2023-02-03T03:04:11;95221.41;;;1.75;100.00
20620;BME280;10469;42.720;23.252;2023-02-03T03:06:48;95233.16;;;1.72;100.00
20620;BME280;10469;42.720;23.252;2023-02-03T03:09:21;95222.47;;;1.66;100.00
20620;BME280;10469;42.720;23.252;2023-02-03T03:11:50;95229.53;;;1.73;100.00
20620;BME280;10469;42.720;23.252;2023-02-03T03:14:19;95219.94;;;1.72;100.00
20620;BME280;10469;42.720;23.252;2023-02-03T03:16:52;95246.25;;;1.66;100.00
20620;BME280;10469;42.720;23.252;2023-02-03T03:19:22;95243.44;;;1.59;100.00
20620;BME280;10469;42.720;23.252;2023-02-03T03:21:56;95250.53;;;1.67;100.00
20620;BME280;10469;42.720;23.252;2023-02-03T03:24:27;95249.75;;;1.58;100.00
20620;BME280;10469;42.720;23.252;2023-02-03T03:26:58;95249.56;;;1.60;100.00
20620;BME280;10469;42.720;23.252;2023-02-03T03:29:35;95254.53;;;1.55;100.00
20620;BME280;10469;42.720;23.252;2023-02-03T03:32:02;95245.97;;;1.53;100.00
20620;BME280;10469;42.720;23.252;2023-02-03T03:34:28;95254.22;;;1.58;100.00
20620;BME280;10469;42.720;23.252;2023-02-03T03:37:01;95253.56;;;1.56;100.00
20620;BME280;10469;42.720;23.252;2023-02-03T03:39:53;95254.38;;;1.56;100.00
20620;BME280;10469;42.720;23.252;2023-02-03T03:44:53;95247.81;;;1.52;100.00
20620;BME280;10469;42.720;23.252;2023-02-03T03:47:38;95249.13;;;1.48;100.00
20620;BME280;10469;42.720;23.252;2023-02-03T03:50:09;95236.47;;;1.35;100.00
20620;BME280;10469;42.720;23.252;2023-02-03T03:52:38;95252.63;;;1.40;100.00
20620;BME280;10469;42.720;23.252;2023-02-03T03:55:07;95240.78;;;1.28;100.00
20620;BME280;10469;42.720;23.252;2023-02-03T04:00:15;95246.19;;;1.43;100.00
20620;BME280;10469;42.720;23.252;2023-02-03T04:02:45;95250.19;;;1.31;100.00
20620;BME280;10469;42.720;23.252;2023-02-03T04:05:13;95249.50;;;1.37;100.00
20620;BME280;10469;42.720;23.252;2023-02-03T04:07:41;95234.34;;;1.31;100.00
20620;BME280;10469;42.720;23.252;2023-02-03T04:10:24;95241.09;;;1.25;100.00
20620;BME280;10469;42.720;23.252;2023-02-03T04:12:51;95253.88;;;1.13;100.00
20620;BME280;10469;42.720;23.252;2023-02-03T04:15:17;95267.59;;;1.09;100.00
20620;BME280;10469;42.720;23.252;2023-02-03T04:17:42;95272.69;;;1.10;100.00
20620;BME280;10469;42.720;23.252;2023-02-03T04:20:08;95270.56;;;1.06;100.00
20620;BME280;10469;42.720;23.252;2023-02-03T04:22:33;95273.00;;;1.07;100.00
20620;BME280;10469;42.720;23.252;2023-02-03T04:24:59;95276.47;;;1.16;100.00
20620;BME280;10469;42.720;23.252;2023-02-03T04:27:25;95276.66;;;1.14;100.00
20620;BME280;10469;42.720;23.252;2023-02-03T04:29:50;95278.63;;;1.12;100.00
20620;BME280;10469;42.720;23.252;2023-02-03T04:32:16;95280.41;;;1.20;100.00
20620;BME280;10469;42.720;23.252;2023-02-03T04:34:42;95283.56;;;1.15;100.00
20620;BME280;10469;42.720;23.252;2023-02-03T04:37:07;95255.22;;;1.01;100.00
20620;BME280;10469;42.720;23.252;2023-02-03T04:39:32;95295.44;;;1.28;100.00
20620;BME280;10469;42.720;23.252;2023-02-03T04:41:58;95300.41;;;1.22;100.00
20620;BME280;10469;42.720;23.252;2023-02-03T04:44:23;95300.41;;;1.22;100.00
20620;BME280;10469;42.720;23.252;2023-02-03T04:46:49;95295.78;;;1.16;100.00
20620;BME280;10469;42.720;23.252;2023-02-03T04:49:14;95291.66;;;1.14;100.00
20620;BME280;10469;42.720;23.252;2023-02-03T04:51:41;95309.66;;;1.18;100.00
20620;BME280;10469;42.720;23.252;2023-02-03T04:54:08;95305.19;;;1.19;100.00
20620;BME280;10469;42.720;23.252;2023-02-03T04:56:34;95307.00;;;1.18;100.00
20620;BME280;10469;42.720;23.252;2023-02-03T04:58:59;95312.63;;;1.23;100.00
20620;BME280;10469;42.720;23.252;2023-02-03T05:01:25;95312.94;;;1.20;100.00
20620;BME280;10469;42.720;23.252;2023-02-03T05:03:50;95322.69;;;1.20;100.00
20620;BME280;10469;42.720;23.252;2023-02-03T05:06:16;95311.16;;;1.13;100.00
20620;BME280;10469;42.720;23.252;2023-02-03T05:08:41;95323.50;;;1.12;100.00
20620;BME280;10469;42.720;23.252;2023-02-03T05:11:06;95323.69;;;1.19;100.00
20620;BME280;10469;42.720;23.252;2023-02-03T05:13:32;95308.34;;;1.14;100.00
20620;BME280;10469;42.720;23.252;2023-02-03T05:15:57;95327.66;;;1.15;100.00
20620;BME280;10469;42.720;23.252;2023-02-03T05:18:23;95332.13;;;1.14;100.00
20620;BME280;10469;42.720;23.252;2023-02-03T05:20:48;95336.06;;;1.18;100.00
20620;BME280;10469;42.720;23.252;2023-02-03T05:23:14;95337.88;;;1.26;100.00
20620;BME280;10469;42.720;23.252;2023-02-03T05:25:39;95338.03;;;1.33;100.00
20620;BME280;10469;42.720;23.252;2023-02-03T05:28:05;95348.94;;;1.30;100.00
20620;BME280;10469;42.720;23.252;2023-02-03T05:30:30;95357.34;;;1.33;100.00
20620;BME280;10469;42.720;23.252;2023-02-03T05:32:55;95359.16;;;1.24;100.00
20620;BME280;10469;42.720;23.252;2023-02-03T05:35:21;95360.84;;;1.17;100.00
20620;BME280;10469;42.720;23.252;2023-02-03T05:37:46;95359.03;;;1.10;100.00
20620;BME280;10469;42.720;23.252;2023-02-03T05:40:13;95357.22;;;1.02;100.00
20620;BME280;10469;42.720;23.252;2023-02-03T05:42:57;95366.28;;;1.08;100.00
20620;BME280;10469;42.720;23.252;2023-02-03T05:45:23;95368.41;;;1.12;100.00
20620;BME280;10469;42.720;23.252;2023-02-03T05:47:48;95349.97;;;1.04;100.00
20620;BME280;10469;42.720;23.252;2023-02-03T05:50:14;95374.69;;;1.11;100.00
20620;BME280;10469;42.720;23.252;2023-02-03T05:52:39;95373.56;;;1.14;100.00
20620;BME280;10469;42.720;23.252;2023-02-03T05:55:05;95378.97;;;1.20;100.00
20620;BME280;10469;42.720;23.252;2023-02-03T05:57:30;95385.75;;;1.23;100.00
20620;BME280;10469;42.720;23.252;2023-02-03T05:59:56;95370.91;;;1.30;100.00
20620;BME280;10469;42.720;23.252;2023-02-03T06:02:21;95380.28;;;1.49;100.00
20620;BME280;10469;42.720;23.252;2023-02-03T06:04:46;95372.69;;;2.33;100.00
20620;BME280;10469;42.720;23.252;2023-02-03T06:07:12;95379.34;;;2.29;100.00
20620;BME280;10469;42.720;23.252;2023-02-03T06:09:37;95377.31;;;2.39;100.00
20620;BME280;10469;42.720;23.252;2023-02-03T06:12:03;95364.09;;;2.39;100.00
20620;BME280;10469;42.720;23.252;2023-02-03T06:14:28;95365.84;;;4.12;100.00
20620;BME280;10469;42.720;23.252;2023-02-03T06:16:54;95357.66;;;4.80;100.00
20620;BME280;10469;42.720;23.252;2023-02-03T06:19:19;95348.22;;;5.48;100.00
20620;BME280;10469;42.720;23.252;2023-02-03T06:21:45;95342.94;;;6.17;100.00
20620;BME280;10469;42.720;23.252;2023-02-03T06:24:10;95360.06;;;6.43;100.00
20620;BME280;10469;42.720;23.252;2023-02-03T06:26:35;95353.91;;;6.36;100.00
20620;BME280;10469;42.720;23.252;2023-02-03T06:29:02;95370.69;;;5.67;100.00
20620;BME280;10469;42.720;23.252;2023-02-03T06:31:27;95359.88;;;5.96;100.00
20620;BME280;10469;42.720;23.252;2023-02-03T06:33:53;95348.28;;;6.65;100.00
20620;BME280;10469;42.720;23.252;2023-02-03T06:36:19;95363.50;;;4.53;100.00
20620;BME280;10469;42.720;23.252;2023-02-03T06:38:45;95365.94;;;4.91;100.00
20620;BME280;10469;42.720;23.252;2023-02-03T06:41:10;95360.75;;;4.83;100.00
20620;BME280;10469;42.720;23.252;2023-02-03T06:43:36;95362.56;;;4.25;100.00
20620;BME280;10469;42.720;23.252;2023-02-03T06:46:01;95375.56;;;3.23;100.00
20620;BME280;10469;42.720;23.252;2023-02-03T06:48:27;95378.44;;;2.98;100.00
20620;BME280;10469;42.720;23.252;2023-02-03T06:50:52;95385.25;;;2.39;100.00
20620;BME280;10469;42.720;23.252;2023-02-03T06:53:17;95392.09;;;2.25;100.00
20620;BME280;10469;42.720;23.252;2023-02-03T06:55:43;95392.00;;;2.41;100.00
20620;BME280;10469;42.720;23.252;2023-02-03T06:58:11;95396.09;;;2.52;100.00
20620;BME280;10469;42.720;23.252;2023-02-03T07:00:36;95406.44;;;2.39;100.00
20620;BME280;10469;42.720;23.252;2023-02-03T07:03:01;95402.34;;;2.59;100.00
20620;BME280;10469;42.720;23.252;2023-02-03T07:05:27;95410.91;;;2.69;100.00
20620;BME280;10469;42.720;23.252;2023-02-03T07:07:53;95405.94;;;2.89;100.00
20620;BME280;10469;42.720;23.252;2023-02-03T07:10:18;95408.31;;;2.84;100.00
20620;BME280;10469;42.720;23.252;2023-02-03T07:12:44;95419.13;;;2.74;100.00
20620;BME280;10469;42.720;23.252;2023-02-03T07:15:10;95414.66;;;2.75;100.00
20620;BME280;10469;42.720;23.252;2023-02-03T07:17:36;95413.78;;;2.83;100.00
20620;BME280;10469;42.720;23.252;2023-02-03T07:20:03;95423.56;;;3.05;100.00
20620;BME280;10469;42.720;23.252;2023-02-03T07:22:28;95414.22;;;2.94;100.00
20620;BME280;10469;42.720;23.252;2023-02-03T07:24:54;95421.88;;;4.17;100.00
20620;BME280;10469;42.720;23.252;2023-02-03T07:27:19;95431.13;;;4.21;100.00
20620;BME280;10469;42.720;23.252;2023-02-03T07:29:45;95408.31;;;4.12;100.00
20620;BME280;10469;42.720;23.252;2023-02-03T07:32:10;95418.41;;;5.04;100.00
20620;BME280;10469;42.720;23.252;2023-02-03T07:34:36;95414.25;;;8.30;100.00
20620;BME280;10469;42.720;23.252;2023-02-03T07:37:01;95408.84;;;9.02;100.00
20620;BME280;10469;42.720;23.252;2023-02-03T07:39:27;95421.06;;;8.13;100.00
20620;BME280;10469;42.720;23.252;2023-02-03T07:41:52;95406.31;;;9.77;100.00
20620;BME280;10469;42.720;23.252;2023-02-03T07:44:17;95431.84;;;9.48;100.00
20620;BME280;10469;42.720;23.252;2023-02-03T07:46:43;95430.91;;;10.79;92.30
20620;BME280;10469;42.720;23.252;2023-02-03T07:49:10;95437.84;;;11.35;86.61
20620;BME280;10469;42.720;23.252;2023-02-03T07:51:36;95429.06;;;10.79;87.57
20620;BME280;10469;42.720;23.252;2023-02-03T07:54:01;95424.50;;;12.83;77.69
20620;BME280;10469;42.720;23.252;2023-02-03T07:56:27;95417.97;;;12.08;76.09
20620;BME280;10469;42.720;23.252;2023-02-03T07:58:54;95440.75;;;11.34;82.28
20620;BME280;10469;42.720;23.252;2023-02-03T08:01:19;95443.19;;;11.53;76.98
20620;BME280;10469;42.720;23.252;2023-02-03T08:03:44;95454.09;;;10.55;81.06
20620;BME280;10469;42.720;23.252;2023-02-03T08:06:10;95460.06;;;11.72;77.64
20620;BME280;10469;42.720;23.252;2023-02-03T08:08:35;95460.31;;;9.74;84.30
20620;BME280;10469;42.720;23.252;2023-02-03T08:11:01;95452.41;;;9.54;91.20
20620;BME280;10469;42.720;23.252;2023-02-03T08:13:27;95447.22;;;11.74;81.34
20620;BME280;10469;42.720;23.252;2023-02-03T08:15:52;95446.31;;;11.20;84.32
20620;BME280;10469;42.720;23.252;2023-02-03T08:18:18;95448.06;;;11.45;81.26
20620;BME280;10469;42.720;23.252;2023-02-03T08:20:46;95423.44;;;12.72;76.06
20620;BME280;10469;42.720;23.252;2023-02-03T08:23:13;95433.03;;;11.25;79.27
20620;BME280;10469;42.720;23.252;2023-02-03T08:25:38;95423.72;;;12.23;80.66
20620;BME280;10469;42.720;23.252;2023-02-03T08:28:04;95418.84;;;11.48;79.32
20620;BME280;10469;42.720;23.252;2023-02-03T08:30:30;95428.91;;;9.56;84.94
20620;BME280;10469;42.720;23.252;2023-02-03T08:32:56;95441.06;;;11.25;75.95
20620;BME280;10469;42.720;23.252;2023-02-03T08:35:22;95437.75;;;10.57;78.24
20620;BME280;10469;42.720;23.252;2023-02-03T08:37:48;95436.16;;;11.22;79.57
20620;BME280;10469;42.720;23.252;2023-02-03T08:40:13;95446.09;;;9.73;79.43
20620;BME280;10469;42.720;23.252;2023-02-03T08:42:43;95444.72;;;5.85;100.00
20620;BME280;10469;42.720;23.252;2023-02-03T08:45:09;95470.34;;;5.43;100.00
20620;BME280;10469;42.720;23.252;2023-02-03T08:47:34;95453.47;;;6.35;100.00
20620;BME280;10469;42.720;23.252;2023-02-03T08:50:02;95480.81;;;7.86;100.00
20620;BME280;10469;42.720;23.252;2023-02-03T08:52:27;95471.56;;;7.48;99.77
20620;BME280;10469;42.720;23.252;2023-02-03T08:54:53;95488.16;;;6.41;100.00
20620;BME280;10469;42.720;23.252;2023-02-03T08:57:20;95470.09;;;6.37;100.00
20620;BME280;10469;42.720;23.252;2023-02-03T08:59:46;95479.19;;;7.98;100.00
20620;BME280;10469;42.720;23.252;2023-02-03T09:02:16;95476.22;;;6.31;100.00
20620;BME280;10469;42.720;23.252;2023-02-03T09:04:43;95460.31;;;8.13;100.00
20620;BME280;10469;42.720;23.252;2023-02-03T09:07:09;95472.75;;;8.72;100.00
20620;BME280;10469;42.720;23.252;2023-02-03T09:09:35;95462.59;;;9.70;99.42
20620;BME280;10469;42.720;23.252;2023-02-03T09:12:01;95455.75;;;8.40;100.00
20620;BME280;10469;42.720;23.252;2023-02-03T09:14:28;95466.03;;;6.89;100.00
20620;BME280;10469;42.720;23.252;2023-02-03T09:16:54;95456.22;;;5.21;100.00
20620;BME280;10469;42.720;23.252;2023-02-03T09:19:19;95463.19;;;6.14;100.00
20620;BME280;10469;42.720;23.252;2023-02-03T09:21:45;95458.91;;;6.96;100.00
20620;BME280;10469;42.720;23.252;2023-02-03T09:24:13;95449.28;;;6.19;100.00
20620;BME280;10469;42.720;23.252;2023-02-03T09:26:39;95461.19;;;5.73;100.00
20620;BME280;10469;42.720;23.252;2023-02-03T09:29:04;95450.09;;;5.70;100.00
20620;BME280;10469;42.720;23.252;2023-02-03T09:31:40;95457.66;;;6.50;100.00
20620;BME280;10469;42.720;23.252;2023-02-03T09:34:12;95428.47;;;7.51;100.00
20620;BME280;10469;42.720;23.252;2023-02-03T09:36:38;95439.56;;;9.38;100.00
20620;BME280;10469;42.720;23.252;2023-02-03T09:39:04;95445.94;;;9.68;92.42
20620;BME280;10469;42.720;23.252;2023-02-03T09:46:40;95431.75;;;8.91;89.95
20620;BME280;10469;42.720;23.252;2023-02-03T09:51:56;95449.84;;;8.96;93.36
20620;BME280;10469;42.720;23.252;2023-02-03T09:54:29;95454.94;;;8.19;85.98
20620;BME280;10469;42.720;23.252;2023-02-03T09:56:59;95449.50;;;7.07;95.71
20620;BME280;10469;42.720;23.252;2023-02-03T09:59:31;95442.41;;;8.46;95.07
20620;BME280;10469;42.720;23.252;2023-02-03T10:04:39;95445.19;;;11.28;75.19
20620;BME280;10469;42.720;23.252;2023-02-03T10:12:46;95438.09;;;10.67;78.10
20620;BME280;10469;42.720;23.252;2023-02-03T10:18:10;95431.53;;;7.68;97.93
20620;BME280;10469;42.720;23.252;2023-02-03T10:21:01;95457.47;;;6.52;100.00
20620;BME280;10469;42.720;23.252;2023-02-03T10:23:38;95450.22;;;7.48;93.88
20620;BME280;10469;42.720;23.252;2023-02-03T10:26:08;95433.13;;;11.19;65.66
20620;BME280;10469;42.720;23.252;2023-02-03T10:28:46;95444.16;;;6.52;91.16
20620;BME280;10469;42.720;23.252;2023-02-03T10:31:20;95435.25;;;5.54;100.00
20620;BME280;10469;42.720;23.252;2023-02-03T10:33:52;95430.75;;;5.54;100.00
20620;BME280;10469;42.720;23.252;2023-02-03T10:39:44;95431.78;;;5.53;100.00
20620;BME280;10469;42.720;23.252;2023-02-03T10:42:11;95434.31;;;5.90;100.00
20620;BME280;10469;42.720;23.252;2023-02-03T10:44:40;95437.66;;;5.06;100.00
20620;BME280;10469;42.720;23.252;2023-02-03T10:47:38;95430.81;;;4.97;100.00
20620;BME280;10469;42.720;23.252;2023-02-03T10:50:33;95423.03;;;5.88;100.00
20620;BME280;10469;42.720;23.252;2023-02-03T10:53:26;95436.50;;;5.79;100.00
20620;BME280;10469;42.720;23.252;2023-02-03T10:56:17;95418.94;;;7.16;99.13
20620;BME280;10469;42.720;23.252;2023-02-03T10:58:57;95417.22;;;9.50;76.61
20620;BME280;10469;42.720;23.252;2023-02-03T11:01:26;95408.25;;;10.38;66.85
20620;BME280;10469;42.720;23.252;2023-02-03T11:03:56;95416.84;;;9.47;64.82
20620;BME280;10469;42.720;23.252;2023-02-03T11:06:23;95413.06;;;8.00;74.91
20620;BME280;10469;42.720;23.252;2023-02-03T11:08:49;95413.31;;;9.15;64.99
20620;BME280;10469;42.720;23.252;2023-02-03T11:13:54;95389.25;;;10.95;56.11
20620;BME280;10469;42.720;23.252;2023-02-03T11:16:22;95390.00;;;9.53;55.25
20620;BME280;10469;42.720;23.252;2023-02-03T11:18:57;95387.50;;;9.84;55.85
20620;BME280;10469;42.720;23.252;2023-02-03T11:21:32;95381.22;;;7.32;69.22
20620;BME280;10469;42.720;23.252;2023-02-03T11:24:20;95371.59;;;9.07;69.88
20620;BME280;10469;42.720;23.252;2023-02-03T11:29:24;95369.72;;;7.71;68.36
20620;BME280;10469;42.720;23.252;2023-02-03T11:31:52;95371.75;;;7.29;67.66
20620;BME280;10469;42.720;23.252;2023-02-03T11:34:23;95387.22;;;6.18;75.67
20620;BME280;10469;42.720;23.252;2023-02-03T11:36:51;95386.59;;;4.74;89.63
20620;BME280;10469;42.720;23.252;2023-02-03T11:39:25;95374.53;;;5.36;90.39
20620;BME280;10469;42.720;23.252;2023-02-03T11:41:51;95356.41;;;8.56;69.19
20620;BME280;10469;42.720;23.252;2023-02-03T11:44:25;95364.72;;;9.18;58.81
20620;BME280;10469;42.720;23.252;2023-02-03T11:47:03;95368.56;;;8.52;57.49
20620;BME280;10469;42.720;23.252;2023-02-03T11:52:23;95387.97;;;8.14;58.40
20620;BME280;10469;42.720;23.252;2023-02-03T12:00:41;95383.09;;;7.58;51.30
20620;BME280;10469;42.720;23.252;2023-02-03T12:05:57;95356.41;;;8.56;58.47
20620;BME280;10469;42.720;23.252;2023-02-03T12:08:42;95365.78;;;8.78;52.86
20620;BME280;10469;42.720;23.252;2023-02-03T12:14:02;95355.31;;;9.65;46.61
20620;BME280;10469;42.720;23.252;2023-02-03T12:22:17;95368.94;;;7.77;58.10
20620;BME280;10469;42.720;23.252;2023-02-03T12:24:58;95384.56;;;6.18;66.27
20620;BME280;10469;42.720;23.252;2023-02-03T12:30:04;95390.50;;;5.64;71.68
20620;BME280;10469;42.720;23.252;2023-02-03T12:32:39;95378.50;;;4.61;75.93
20620;BME280;10469;42.720;23.252;2023-02-03T12:37:53;95384.50;;;5.06;79.40
20620;BME280;10469;42.720;23.252;2023-02-03T12:40:41;95379.31;;;4.98;81.99
20620;BME280;10469;42.720;23.252;2023-02-03T12:45:48;95354.00;;;4.81;86.20
20620;BME280;10469;42.720;23.252;2023-02-03T12:48:19;95371.50;;;4.39;88.45
20620;BME280;10469;42.720;23.252;2023-02-03T12:51:01;95373.34;;;4.96;89.53
20620;BME280;10469;42.720;23.252;2023-02-03T12:53:47;95372.59;;;5.02;93.33
20620;BME280;10469;42.720;23.252;2023-02-03T12:56:22;95359.78;;;6.24;87.70
20620;BME280;10469;42.720;23.252;2023-02-03T12:58:56;95358.53;;;6.14;85.52
20620;BME280;10469;42.720;23.252;2023-02-03T13:01:34;95336.81;;;6.71;88.32
20620;BME280;10469;42.720;23.252;2023-02-03T13:04:08;95345.94;;;7.37;80.37
20620;BME280;10469;42.720;23.252;2023-02-03T13:06:53;95339.22;;;6.05;84.05
20620;BME280;10469;42.720;23.252;2023-02-03T13:09:48;95343.34;;;6.62;81.60
20620;BME280;10469;42.720;23.252;2023-02-03T13:20:34;95338.03;;;5.23;94.70
20620;BME280;10469;42.720;23.252;2023-02-03T13:23:04;95345.81;;;5.03;98.69
20620;BME280;10469;42.720;23.252;2023-02-03T13:25:42;95347.53;;;5.39;96.72
20620;BME280;10469;42.720;23.252;2023-02-03T13:28:26;95346.50;;;5.34;96.60
20620;BME280;10469;42.720;23.252;2023-02-03T13:44:42;95338.16;;;4.51;100.00
20620;BME280;10469;42.720;23.252;2023-02-03T13:47:15;95330.06;;;4.59;100.00
20620;BME280;10469;42.720;23.252;2023-02-03T13:49:47;95345.97;;;4.38;100.00
20620;BME280;10469;42.720;23.252;2023-02-03T13:52:45;95350.69;;;3.91;100.00
20620;BME280;10469;42.720;23.252;2023-02-03T13:55:59;95354.53;;;3.89;100.00
20620;BME280;10469;42.720;23.252;2023-02-03T13:58:27;95328.19;;;4.02;100.00
20620;BME280;10469;42.720;23.252;2023-02-03T14:05:54;95338.13;;;4.15;100.00
20620;BME280;10469;42.720;23.252;2023-02-03T14:16:33;95319.41;;;3.87;100.00
20620;BME280;10469;42.720;23.252;2023-02-03T14:18:59;95341.78;;;4.14;100.00
20620;BME280;10469;42.720;23.252;2023-02-03T14:21:25;95331.88;;;4.22;100.00
20620;BME280;10469;42.720;23.252;2023-02-03T14:24:02;95333.13;;;4.41;100.00
20620;BME280;10469;42.720;23.252;2023-02-03T14:26:58;95316.25;;;4.27;100.00
20620;BME280;10469;42.720;23.252;2023-02-03T14:29:29;95321.44;;;4.57;100.00
20620;BME280;10469;42.720;23.252;2023-02-03T14:34:44;95320.56;;;4.50;100.00
20620;BME280;10469;42.720;23.252;2023-02-03T14:37:28;95337.91;;;4.31;100.00
20620;BME280;10469;42.720;23.252;2023-02-03T14:55:56;95328.91;;;3.96;99.07
20620;BME280;10469;42.720;23.252;2023-02-03T15:00:58;95311.41;;;4.01;99.13
20620;BME280;10469;42.720;23.252;2023-02-03T15:03:25;95313.09;;;3.73;100.00
20620;BME280;10469;42.720;23.252;2023-02-03T15:05:59;95287.50;;;3.80;100.00
20620;BME280;10469;42.720;23.252;2023-02-03T15:08:42;95295.94;;;4.05;100.00
20620;BME280;10469;42.720;23.252;2023-02-03T15:13:40;95293.63;;;3.51;100.00
20620;BME280;10469;42.720;23.252;2023-02-03T15:16:13;95273.44;;;3.50;100.00
20620;BME280;10469;42.720;23.252;2023-02-03T15:18:41;95281.06;;;3.45;100.00
20620;BME280;10469;42.720;23.252;2023-02-03T15:21:17;95268.84;;;3.44;100.00
20620;BME280;10469;42.720;23.252;2023-02-03T15:23:45;95267.03;;;3.59;100.00
20620;BME280;10469;42.720;23.252;2023-02-03T15:26:23;95276.69;;;3.52;100.00
20620;BME280;10469;42.720;23.252;2023-02-03T15:28:58;95271.69;;;3.42;100.00
20620;BME280;10469;42.720;23.252;2023-02-03T15:31:31;95269.22;;;3.56;100.00